Time;durP1;ratioP1;P1;durP2;ratioP2;P2;SDS_P1;SDS_P2;PMS_P1;PMS_P2;Temp;Humidity;BMP_temperature;BMP_pressure;BME280_temperature;BME280_humidity;BME280_pressure;Samples;Min_cycle;Max_cycle;Signal;HPM_P1;HPM_P2
2022/09/06 00:00:34;;;;;;;1.02;0.80;;;;;;;19.91;73.23;101622.00;5036602;28;20021;-77
2022/09/06 00:03:01;;;;;;;1.02;0.93;;;;;;;19.91;73.21;101628.16;5053249;28;20071;-78
2022/09/06 00:05:31;;;;;;;1.80;0.90;;;;;;;19.92;73.17;101650.31;5036801;28;20025;-78
2022/09/06 00:08:04;;;;;;;0.65;0.63;;;;;;;19.93;72.76;101644.00;5035509;28;20242;-78
2022/09/06 00:10:30;;;;;;;0.57;0.57;;;;;;;19.94;72.73;101656.38;5030234;28;20054;-78
2022/09/06 00:13:06;;;;;;;0.70;0.70;;;;;;;19.94;72.87;101661.69;5034978;28;20119;-78
2022/09/06 00:15:32;;;;;;;2.70;0.60;;;;;;;19.94;72.75;101662.53;5035901;28;20040;-77
2022/09/06 00:18:00;;;;;;;0.77;0.77;;;;;;;19.94;72.83;101673.16;5017312;28;20086;-77
2022/09/06 00:20:26;;;;;;;0.70;0.70;;;;;;;19.96;73.03;101666.91;5045045;28;20029;-77
2022/09/06 00:22:59;;;;;;;1.13;0.80;;;;;;;19.95;72.53;101674.00;5036889;28;20032;-77
2022/09/06 00:25:26;;;;;;;0.60;0.60;;;;;;;19.96;72.23;101666.91;5003037;28;20034;-78
2022/09/06 00:28:00;;;;;;;0.73;0.73;;;;;;;19.96;72.32;101661.59;5017172;28;20049;-77
2022/09/06 00:30:27;;;;;;;0.50;0.50;;;;;;;19.96;72.26;101659.75;5024335;28;20099;-77
2022/09/06 00:32:53;;;;;;;0.70;0.70;;;;;;;19.96;71.80;101661.59;5018485;28;20148;-78
2022/09/06 00:35:20;;;;;;;2.70;0.63;;;;;;;19.95;71.83;101663.38;5035380;28;20328;-77
2022/09/06 00:37:46;;;;;;;2.47;0.50;;;;;;;19.95;71.67;101658.06;5034726;28;20287;-78
2022/09/06 00:40:13;;;;;;;1.38;0.80;;;;;;;19.96;72.13;101659.75;5017640;28;20037;-78
2022/09/06 00:42:38;;;;;;;0.60;0.60;;;;;;;19.94;71.88;101651.03;5019255;28;20081;-78
2022/09/06 00:45:06;;;;;;;1.27;0.55;;;;;;;19.94;71.67;101659.03;5038400;28;20303;-78
2022/09/06 00:47:34;;;;;;;1.10;0.82;;;;;;;19.93;72.16;101644.84;5017660;28;20042;-78
2022/09/06 00:50:00;;;;;;;0.82;0.80;;;;;;;19.93;71.94;101636.03;5017773;28;20041;-77
2022/09/06 00:52:26;;;;;;;0.60;0.60;;;;;;;19.93;71.95;101612.13;5050992;28;20067;-78
2022/09/06 00:54:53;;;;;;;1.75;0.80;;;;;;;19.93;72.49;101612.13;5035901;28;20041;-78
2022/09/06 00:57:18;;;;;;;1.10;1.00;;;;;;;19.93;73.12;101601.47;4997921;28;20037;-77
2022/09/06 00:59:46;;;;;;;1.63;1.10;;;;;;;19.91;73.20;101598.09;5031328;28;20406;-77
2022/09/06 01:04:50;;;;;;;0.90;0.90;;;;;;;19.91;73.62;101563.53;5036310;28;20074;-78
2022/09/06 01:07:53;;;;;;;1.30;1.17;;;;;;;19.87;73.99;101549.59;5019885;28;20025;-78
2022/09/06 01:10:25;;;;;;;1.80;1.10;;;;;;;19.84;74.36;101546.28;5032144;28;20033;-78
2022/09/06 01:13:27;;;;;;;1.10;1.00;;;;;;;19.79;74.37;101533.31;5036085;28;20052;-78
2022/09/06 01:15:58;;;;;;;1.45;1.08;;;;;;;19.67;74.82;101540.28;5028791;28;20057;-79
2022/09/06 01:18:46;;;;;;;1.35;1.00;;;;;;;19.53;75.49;101529.75;5031836;28;20048;-78
2022/09/06 01:21:19;;;;;;;1.15;1.08;;;;;;;19.44;76.33;101531.22;5051376;28;20033;-78
2022/09/06 01:24:04;;;;;;;1.50;1.40;;;;;;;19.31;76.93;101517.06;5029884;28;20111;-78
2022/09/06 01:26:58;;;;;;;1.30;1.20;;;;;;;19.24;77.31;101513.13;5026655;28;20072;-78
2022/09/06 01:29:38;;;;;;;1.10;1.10;;;;;;;19.12;77.35;101507.69;5031755;28;20255;-78
2022/09/06 01:32:11;;;;;;;1.50;1.33;;;;;;;19.09;77.53;101501.72;5046355;28;20041;-78
2022/09/06 01:34:44;;;;;;;2.17;1.45;;;;;;;19.04;77.51;101495.84;5037700;28;20029;-78
2022/09/06 01:37:16;;;;;;;4.97;1.50;;;;;;;19.04;77.42;101496.69;5038291;28;20029;-78
2022/09/06 01:39:41;;;;;;;1.60;1.50;;;;;;;19.03;77.40;101489.69;5039922;28;20372;-78
2022/09/06 01:42:12;;;;;;;1.05;1.05;;;;;;;19.10;77.23;101490.13;5021541;28;20115;-78
2022/09/06 01:44:42;;;;;;;1.13;1.10;;;;;;;19.16;76.78;101492.41;5026235;28;20179;-78
2022/09/06 01:47:23;;;;;;;0.95;0.95;;;;;;;19.22;76.29;101484.00;5019245;28;20037;-79
2022/09/06 01:50:08;;;;;;;1.40;1.30;;;;;;;19.27;75.92;101478.41;5037392;28;20097;-78
2022/09/06 01:53:28;;;;;;;1.60;1.50;;;;;;;19.32;75.85;101479.78;5045950;28;20033;-78
2022/09/06 01:56:33;;;;;;;1.13;1.13;;;;;;;19.36;75.62;101480.44;5008554;28;20045;-78
2022/09/06 01:59:23;;;;;;;1.20;1.20;;;;;;;19.40;75.50;101481.06;5048335;28;20111;-78
2022/09/06 02:02:12;;;;;;;1.33;1.23;;;;;;;19.41;75.25;101480.09;5012634;28;20474;-78
2022/09/06 02:05:00;;;;;;;1.50;1.40;;;;;;;19.41;75.29;101483.63;5033983;28;20022;-78
2022/09/06 02:07:28;;;;;;;1.50;1.40;;;;;;;19.43;75.17;101483.50;5037622;28;20022;-79
2022/09/06 02:10:12;;;;;;;1.77;1.67;;;;;;;19.43;75.25;101480.84;5023014;28;20021;-78
2022/09/06 02:12:42;;;;;;;1.50;1.40;;;;;;;19.43;75.18;101491.47;5030311;28;20231;-79
2022/09/06 02:15:19;;;;;;;1.98;1.70;;;;;;;19.43;75.10;101494.13;5019107;28;20328;-78
2022/09/06 02:17:57;;;;;;;1.60;1.50;;;;;;;19.43;75.24;101495.00;5025721;28;20025;-79
2022/09/06 02:20:27;;;;;;;1.70;1.60;;;;;;;19.42;75.01;101490.63;5056621;28;20338;-78
2022/09/06 02:22:56;;;;;;;2.80;1.60;;;;;;;19.42;75.10;101490.63;5032912;28;20023;-78
2022/09/06 02:25:32;;;;;;;;;;;;;;;19.42;75.15;101492.44;5037925;28;20077;-78
2022/09/06 02:27:58;;;;;;;1.98;1.80;;;;;;;19.42;74.80;101503.06;5016205;28;20249;-78
2022/09/06 02:30:23;;;;;;;1.80;1.70;;;;;;;19.40;75.01;101497.84;5017128;28;20041;-78
2022/09/06 02:32:59;;;;;;;2.10;1.77;;;;;;;19.40;74.85;101503.16;5035591;28;20061;-78
2022/09/06 02:35:25;;;;;;;2.80;1.70;;;;;;;19.39;75.13;101496.13;5050214;28;20036;-78
2022/09/06 02:37:50;;;;;;;1.63;1.52;;;;;;;19.39;74.89;101504.09;5038223;28;20346;-78
2022/09/06 02:40:17;;;;;;;2.05;1.80;;;;;;;19.40;74.86;101504.97;5038170;28;20076;-78
2022/09/06 02:42:42;;;;;;;1.85;1.75;;;;;;;19.38;74.95;101513.88;5019024;28;20100;-78
2022/09/06 02:45:08;;;;;;;2.45;1.70;;;;;;;19.38;74.95;101508.56;5037248;28;20033;-78
2022/09/06 02:47:33;;;;;;;2.10;1.80;;;;;;;19.36;74.72;101512.31;5051301;28;20395;-78
2022/09/06 02:49:59;;;;;;;3.47;2.15;;;;;;;19.38;74.62;101510.38;5024338;28;20052;-77
2022/09/06 02:52:25;;;;;;;1.80;1.70;;;;;;;19.36;74.63;101513.16;5037819;28;20040;-77
2022/09/06 02:54:51;;;;;;;1.70;1.52;;;;;;;19.36;74.63;101520.28;4999448;28;20040;-77
2022/09/06 02:57:16;;;;;;;3.00;2.08;;;;;;;19.35;74.90;101515.91;5003790;28;20070;-78
2022/09/06 02:59:41;;;;;;;2.17;2.08;;;;;;;19.34;74.67;101517.72;5019283;28;20041;-78
2022/09/06 03:02:07;;;;;;;1.98;1.88;;;;;;;19.33;74.81;101526.63;5020376;28;20406;-78
2022/09/06 03:04:32;;;;;;;2.92;1.67;;;;;;;19.32;74.77;101527.59;5053785;28;20055;-78
2022/09/06 03:06:58;;;;;;;3.17;2.13;;;;;;;19.31;75.05;101525.88;5020902;28;20025;-78
2022/09/06 03:09:24;;;;;;;2.47;2.28;;;;;;;19.31;75.09;101528.53;5055626;28;20029;-77
2022/09/06 03:11:49;;;;;;;1.90;1.80;;;;;;;19.30;74.96;101532.16;5019109;28;20041;-77
2022/09/06 03:14:15;;;;;;;2.17;2.03;;;;;;;19.30;74.94;101523.31;5020802;28;20120;-77
2022/09/06 03:16:41;;;;;;;1.88;1.77;;;;;;;19.29;75.05;101532.25;5004409;28;20288;-78
2022/09/06 03:19:07;;;;;;;2.42;1.90;;;;;;;19.27;74.75;101537.66;5036131;28;20071;-77
2022/09/06 03:21:33;;;;;;;2.60;2.10;;;;;;;19.27;74.67;101548.28;5003610;28;20044;-78
2022/09/06 03:23:58;;;;;;;4.72;1.80;;;;;;;19.27;74.52;101555.41;5012776;28;20099;-77
2022/09/06 03:26:24;;;;;;;2.85;1.98;;;;;;;19.26;74.68;101559.84;5018935;28;20332;-78
2022/09/06 03:28:49;;;;;;;1.80;1.70;;;;;;;19.26;74.67;101567.81;5002257;28;20038;-78
2022/09/06 03:31:15;;;;;;;1.70;1.60;;;;;;;19.25;74.34;101574.09;4999622;28;20149;-78
2022/09/06 03:33:40;;;;;;;2.03;1.92;;;;;;;19.25;74.21;101575.91;5034101;28;20064;-78
2022/09/06 03:36:06;;;;;;;1.70;1.60;;;;;;;19.25;74.20;101571.44;5054399;28;20040;-77
2022/09/06 03:38:31;;;;;;;2.15;1.90;;;;;;;19.24;73.94;101566.22;5010877;28;20239;-78
2022/09/06 03:40:57;;;;;;;2.55;2.05;;;;;;;19.23;73.98;101568.03;5054286;28;20033;-78
2022/09/06 03:43:24;;;;;;;1.80;1.70;;;;;;;19.24;74.30;101564.41;5019019;28;20044;-78
2022/09/06 03:45:53;;;;;;;2.20;2.10;;;;;;;19.24;74.28;101569.72;5027636;28;20024;-77
2022/09/06 03:48:20;;;;;;;2.20;2.10;;;;;;;19.24;74.34;101566.22;5033310;28;20056;-78
2022/09/06 03:50:47;;;;;;;2.00;1.90;;;;;;;19.22;74.50;101566.31;5054704;28;20028;-78
2022/09/06 03:53:13;;;;;;;2.28;2.17;;;;;;;19.23;74.88;101561.84;5034886;28;20659;-78
2022/09/06 03:55:38;;;;;;;2.35;2.25;;;;;;;19.23;74.67;101570.69;5020017;28;20084;-78
2022/09/06 03:58:03;;;;;;;2.20;2.00;;;;;;;19.23;74.48;101561.84;5030277;28;20324;-78
2022/09/06 04:00:29;;;;;;;2.53;2.33;;;;;;;19.22;74.75;101561.00;5017183;28;20048;-78
2022/09/06 04:02:54;;;;;;;3.00;2.80;;;;;;;19.22;74.59;101566.31;5001191;28;20107;-78
2022/09/06 04:05:20;;;;;;;2.80;2.60;;;;;;;19.22;74.67;101568.13;4997226;28;20037;-78
2022/09/06 04:07:45;;;;;;;2.72;2.50;;;;;;;19.20;75.06;101581.50;4997317;28;20065;-78
2022/09/06 04:10:10;;;;;;;2.90;2.70;;;;;;;19.20;75.10;101578.00;5034036;28;20033;-78
2022/09/06 04:12:36;;;;;;;2.50;2.30;;;;;;;19.21;75.04;101577.03;5046834;28;20033;-78
2022/09/06 04:15:02;;;;;;;2.38;2.17;;;;;;;19.20;74.92;101578.84;5012320;28;20417;-78
2022/09/06 04:17:27;;;;;;;2.67;2.47;;;;;;;19.19;75.00;101579.78;5020729;28;20025;-78
2022/09/06 04:19:53;;;;;;;2.42;2.33;;;;;;;19.19;74.39;101590.41;5020520;28;20348;-78
2022/09/06 04:22:18;;;;;;;2.65;2.20;;;;;;;19.18;74.82;101572.78;5028948;28;20091;-78
2022/09/06 04:24:46;;;;;;;3.85;2.85;;;;;;;19.18;75.17;101586.06;5018582;28;20222;-78
2022/09/06 04:27:11;;;;;;;5.57;3.33;;;;;;;19.16;75.40;101583.50;5018472;28;20360;-78
2022/09/06 04:29:36;;;;;;;4.72;3.20;;;;;;;19.17;75.64;101584.34;5023439;28;20053;-78
2022/09/06 04:32:02;;;;;;;2.97;2.50;;;;;;;19.16;75.51;101598.59;5036329;28;20052;-78
2022/09/06 04:34:27;;;;;;;4.53;2.90;;;;;;;19.16;75.56;101602.09;5034999;28;20107;-79
2022/09/06 04:36:53;;;;;;;3.03;2.83;;;;;;;19.14;75.84;101604.00;5015494;28;20367;-78
2022/09/06 04:39:18;;;;;;;3.08;2.78;;;;;;;19.15;76.03;101604.84;5034608;28;20037;-78
2022/09/06 04:41:44;;;;;;;6.38;2.80;;;;;;;19.14;76.21;101595.19;5000119;28;20029;-78
2022/09/06 04:44:09;;;;;;;5.38;2.83;;;;;;;19.14;76.17;101587.22;5016115;28;20037;-78
2022/09/06 04:46:34;;;;;;;2.75;2.55;;;;;;;19.13;76.16;101588.16;5012777;28;20044;-78
2022/09/06 04:49:00;;;;;;;2.85;2.65;;;;;;;19.13;76.07;101588.16;5033255;28;20100;-78
2022/09/06 04:51:25;;;;;;;3.10;2.85;;;;;;;19.13;76.23;101585.50;5021113;28;20056;-78
2022/09/06 04:53:52;;;;;;;3.00;2.80;;;;;;;19.12;76.23;101584.66;5036242;28;20037;-78
2022/09/06 04:56:22;;;;;;;3.20;2.90;;;;;;;19.12;76.22;101578.50;5039273;28;20053;-78
2022/09/06 04:58:50;;;;;;;3.42;3.08;;;;;;;19.12;76.46;101568.72;5041290;28;20038;-78
2022/09/06 05:01:16;;;;;;;3.15;2.85;;;;;;;19.11;76.39;101563.53;5034490;28;20029;-78
2022/09/06 05:03:41;;;;;;;4.05;3.05;;;;;;;19.11;76.55;101558.22;5016317;28;20034;-78
2022/09/06 05:06:13;;;;;;;4.97;3.10;;;;;;;19.11;76.56;101545.78;5014842;28;20329;-77
2022/09/06 05:08:40;;;;;;;3.80;3.00;;;;;;;19.09;76.64;101553.00;5036419;28;20064;-78
2022/09/06 05:11:06;;;;;;;3.65;3.35;;;;;;;19.10;76.80;101551.19;5017590;28;20219;-79
2022/09/06 05:13:32;;;;;;;3.35;3.15;;;;;;;19.08;77.02;101547.78;5017971;28;20026;-78
2022/09/06 05:16:03;;;;;;;5.18;3.53;;;;;;;19.07;77.01;101546.09;5017878;28;20112;-78
2022/09/06 05:18:28;;;;;;;3.80;3.50;;;;;;;19.06;76.99;101537.25;5029289;28;20395;-78
2022/09/06 05:20:54;;;;;;;3.97;3.72;;;;;;;19.05;76.93;101529.44;5017649;28;20037;-78
2022/09/06 05:23:21;;;;;;;4.30;3.90;;;;;;;19.04;77.18;101533.84;5014911;28;20029;-78
2022/09/06 05:25:46;;;;;;;6.00;3.90;;;;;;;19.04;77.38;101533.00;5010996;28;20034;-78
2022/09/06 05:28:12;;;;;;;4.13;3.83;;;;;;;19.03;77.21;101537.47;5015894;28;20160;-78
2022/09/06 05:30:37;;;;;;;4.53;3.58;;;;;;;19.03;77.26;101536.59;5014871;28;20043;-78
2022/09/06 05:33:03;;;;;;;4.78;3.80;;;;;;;19.01;77.30;101538.50;5009958;28;20041;-78
2022/09/06 05:35:29;;;;;;;4.05;3.75;;;;;;;19.00;77.37;101532.38;5001076;28;20129;-78
2022/09/06 05:37:55;;;;;;;4.25;3.75;;;;;;;19.00;77.33;101532.38;5036356;28;20509;-78
2022/09/06 05:40:20;;;;;;;3.83;3.53;;;;;;;18.99;77.27;101534.19;5036776;28;20043;-78
2022/09/06 05:42:46;;;;;;;3.63;3.35;;;;;;;18.99;77.34;101530.66;5029014;28;20118;-78
2022/09/06 05:45:11;;;;;;;3.80;3.50;;;;;;;18.99;77.03;101530.66;5034533;28;20037;-78
2022/09/06 05:47:37;;;;;;;5.50;3.47;;;;;;;18.97;77.20;101524.59;5026891;28;20051;-78
2022/09/06 05:50:03;;;;;;;3.92;3.63;;;;;;;18.96;76.99;101526.41;5020815;28;20112;-78
2022/09/06 05:52:29;;;;;;;4.13;3.80;;;;;;;18.95;77.25;101526.50;5037566;28;20045;-78
2022/09/06 05:54:54;;;;;;;3.47;3.28;;;;;;;18.94;77.38;101515.03;5023254;28;20360;-78
2022/09/06 05:57:20;;;;;;;4.55;3.40;;;;;;;18.94;77.15;101517.69;5037503;28;20036;-78
2022/09/06 05:59:45;;;;;;;4.13;3.55;;;;;;;18.94;77.38;101515.03;5037157;28;20045;-78
2022/09/06 06:02:11;;;;;;;4.05;3.67;;;;;;;18.94;77.17;101519.50;5054502;28;20220;-78
2022/09/06 06:04:36;;;;;;;3.90;3.60;;;;;;;18.92;77.32;101522.25;5006149;28;20040;-78
2022/09/06 06:07:02;;;;;;;7.18;3.92;;;;;;;18.93;77.36;101512.47;5035549;28;20121;-79
2022/09/06 06:09:27;;;;;;;5.57;3.97;;;;;;;18.92;77.27;101519.59;4997018;28;20041;-78
2022/09/06 06:11:52;;;;;;;6.22;4.05;;;;;;;18.92;77.48;101510.78;5041045;28;20235;-78
2022/09/06 06:14:18;;;;;;;4.10;3.80;;;;;;;18.91;77.37;101509.94;5024667;28;20320;-78
2022/09/06 06:16:43;;;;;;;4.40;4.00;;;;;;;18.91;77.37;101509.94;5041385;28;20270;-78
2022/09/06 06:19:08;;;;;;;5.20;4.03;;;;;;;18.90;77.53;101500.28;5040350;28;20045;-77
2022/09/06 06:21:37;;;;;;;4.63;4.22;;;;;;;18.91;77.33;101504.63;5024527;28;20084;-78
2022/09/06 06:24:04;;;;;;;4.85;4.45;;;;;;;18.91;77.58;101499.31;4996619;28;20029;-78
2022/09/06 06:26:34;;;;;;;4.85;4.32;;;;;;;18.90;78.11;101489.66;5003596;28;20057;-78
2022/09/06 06:29:02;;;;;;;5.65;4.72;;;;;;;18.91;78.52;101495.81;5021025;28;20084;-78
2022/09/06 06:31:30;;;;;;;7.68;4.78;;;;;;;18.90;78.51;101488.78;5005177;28;20028;-78
2022/09/06 06:33:55;;;;;;;5.93;4.60;;;;;;;18.90;78.48;101483.47;5039812;28;20033;-78
2022/09/06 06:36:23;;;;;;;5.15;4.70;;;;;;;18.89;78.27;101479.97;5043214;28;20213;-78
2022/09/06 06:38:50;;;;;;;5.97;4.78;;;;;;;18.91;78.00;101480.72;5043444;28;20036;-78
2022/09/06 06:41:18;;;;;;;4.40;4.10;;;;;;;18.91;77.67;101475.41;5005573;28;20036;-78
2022/09/06 06:43:43;;;;;;;4.63;4.28;;;;;;;18.93;77.32;101480.63;5006648;28;20076;-78
2022/09/06 06:46:13;;;;;;;4.57;3.85;;;;;;;18.91;77.25;101490.50;5011924;28;20053;-78
2022/09/06 06:48:40;;;;;;;4.68;4.35;;;;;;;18.94;77.34;101490.31;5028122;28;20104;-78
2022/09/06 06:51:07;;;;;;;4.80;4.40;;;;;;;18.93;77.29;101481.47;5027602;28;20096;-78
2022/09/06 06:53:32;;;;;;;4.60;4.20;;;;;;;18.93;77.12;101486.78;5031520;28;20212;-78
2022/09/06 06:55:58;;;;;;;6.05;4.32;;;;;;;18.93;77.10;101489.44;5013935;28;20096;-78
2022/09/06 06:58:24;;;;;;;3.92;3.70;;;;;;;18.95;76.73;101495.50;5028265;28;20060;-78
2022/09/06 07:00:49;;;;;;;4.05;3.72;;;;;;;18.95;76.37;101492.00;5033431;28;20249;-78
2022/09/06 07:03:15;;;;;;;4.75;4.10;;;;;;;18.96;76.48;101494.56;5005928;28;20093;-78
2022/09/06 07:05:45;;;;;;;5.80;3.90;;;;;;;18.96;76.35;101494.56;4998566;28;20037;-78
2022/09/06 07:08:11;;;;;;;3.92;3.50;;;;;;;18.97;75.81;101490.97;4996697;28;20517;-78
2022/09/06 07:10:36;;;;;;;3.60;3.38;;;;;;;18.99;75.37;101483.75;5030795;28;20037;-78
2022/09/06 07:13:02;;;;;;;5.85;3.85;;;;;;;19.01;76.15;101490.75;5009826;28;20357;-78
2022/09/06 07:15:28;;;;;;;3.72;3.47;;;;;;;19.02;76.07;101495.09;5031238;28;20033;-78
2022/09/06 07:17:54;;;;;;;3.60;3.30;;;;;;;19.03;75.74;101486.19;5011463;28;20036;-78
2022/09/06 07:20:20;;;;;;;3.80;3.50;;;;;;;19.04;75.74;101485.22;5000809;28;20564;-78
2022/09/06 07:22:45;;;;;;;3.40;3.13;;;;;;;19.03;75.40;101479.09;5000323;28;20049;-78
2022/09/06 07:25:12;;;;;;;4.45;3.15;;;;;;;19.03;75.30;101479.09;5022369;28;20036;-78
2022/09/06 07:27:38;;;;;;;3.90;2.83;;;;;;;19.06;75.03;101478.03;5002202;28;20415;-79
2022/09/06 07:30:04;;;;;;;2.88;2.70;;;;;;;19.07;74.71;101477.06;4998201;28;20140;-78
2022/09/06 07:32:30;;;;;;;3.38;3.17;;;;;;;19.06;75.21;101468.25;4998284;28;20037;-78
2022/09/06 07:34:55;;;;;;;3.20;3.00;;;;;;;19.09;75.33;101467.22;4986565;28;20037;-78
2022/09/06 07:37:21;;;;;;;3.70;3.40;;;;;;;19.10;75.57;101466.22;5008585;28;20340;-78
2022/09/06 07:39:46;;;;;;;6.20;4.00;;;;;;;19.09;77.97;101464.56;4996615;28;20343;-78
2022/09/06 07:42:12;;;;;;;3.75;3.55;;;;;;;19.12;77.57;101472.31;4996262;28;20033;-78
2022/09/06 07:44:37;;;;;;;3.83;3.53;;;;;;;19.12;76.85;101478.47;5000212;28;20376;-78
2022/09/06 07:47:05;;;;;;;3.67;3.35;;;;;;;19.12;76.13;101475.81;4975686;28;20117;-78
2022/09/06 07:49:31;;;;;;;4.05;3.70;;;;;;;19.14;76.38;101473.06;5022479;28;20037;-78
2022/09/06 07:51:57;;;;;;;5.88;5.38;;;;;;;19.14;79.24;101473.91;5006899;28;20037;-78
2022/09/06 07:54:22;;;;;;;5.95;5.35;;;;;;;19.14;80.08;101479.22;5027101;28;20371;-78
2022/09/06 07:56:48;;;;;;;5.38;4.38;;;;;;;19.15;79.32;101480.91;4998704;28;20080;-78
2022/09/06 07:59:14;;;;;;;4.10;3.78;;;;;;;19.18;78.52;101477.22;5004847;28;20406;-78
2022/09/06 08:01:40;;;;;;;5.30;4.80;;;;;;;19.21;78.88;101479.66;5002461;28;20359;-78
2022/09/06 08:04:08;;;;;;;5.05;3.72;;;;;;;19.23;78.58;101483.06;5023945;28;20367;-78
2022/09/06 08:06:35;;;;;;;4.00;3.42;;;;;;;19.24;78.19;101491.88;5026006;28;20391;-79
2022/09/06 08:09:01;;;;;;;3.50;3.30;;;;;;;19.26;77.65;101488.16;5006248;28;20037;-78
2022/09/06 08:11:30;;;;;;;3.80;3.50;;;;;;;19.27;77.99;101489.03;4987759;28;20034;-78
2022/09/06 08:13:56;;;;;;;;;;;;;;;19.28;77.78;101498.66;5007977;28;20056;-78
2022/09/06 08:16:23;;;;;;;3.58;3.28;;;;;;;19.30;77.58;101496.75;5030223;28;19927;-78
2022/09/06 08:18:51;;;;;;;6.22;3.92;;;;;;;19.29;77.93;101497.72;5028608;28;20050;-77
2022/09/06 08:21:16;;;;;;;3.47;3.17;;;;;;;19.30;78.29;101496.75;4993474;28;20221;-78
2022/09/06 08:23:54;;;;;;;3.90;3.42;;;;;;;19.31;77.78;101499.31;4982057;28;20044;-78
2022/09/06 08:26:21;;;;;;;8.25;3.95;;;;;;;19.32;77.77;101494.88;5008254;28;20057;-79
2022/09/06 08:28:46;;;;;;;3.35;3.03;;;;;;;19.32;77.99;101494.88;5013712;28;20256;-77
2022/09/06 08:31:16;;;;;;;3.20;2.90;;;;;;;19.32;77.67;101493.06;5020689;28;20034;-78
2022/09/06 08:33:42;;;;;;;4.13;3.28;;;;;;;19.32;77.26;101495.72;5008338;28;20269;-78
2022/09/06 08:36:08;;;;;;;4.15;3.28;;;;;;;19.34;77.05;101492.97;5023329;28;20266;-78
2022/09/06 08:38:34;;;;;;;3.13;2.92;;;;;;;19.35;76.86;101492.00;4999737;28;20045;-78
2022/09/06 08:41:18;;;;;;;3.08;2.65;;;;;;;19.35;76.66;101484.88;4992134;28;20054;-78
2022/09/06 08:44:06;;;;;;;2.80;2.60;;;;;;;19.36;76.40;101489.25;4997771;28;20057;-78
2022/09/06 08:46:44;;;;;;;6.43;2.90;;;;;;;19.37;76.05;101483.00;4986765;28;20524;-78
2022/09/06 08:49:10;;;;;;;3.92;3.00;;;;;;;19.38;76.16;101484.69;4989707;28;20080;-78
2022/09/06 08:51:45;;;;;;;3.70;3.20;;;;;;;19.40;76.09;101481.06;4997519;28;20262;-78
2022/09/06 08:54:39;;;;;;;3.85;3.45;;;;;;;19.40;75.77;101481.91;5013969;28;20043;-78
2022/09/06 08:57:42;;;;;;;3.55;2.97;;;;;;;19.42;75.45;101487.97;5012542;28;20030;-78
2022/09/06 09:00:10;;;;;;;3.15;2.95;;;;;;;19.43;75.32;101486.16;5023757;28;20152;-78
2022/09/06 09:03:08;;;;;;;3.95;2.83;;;;;;;19.44;75.32;101482.56;4980481;28;20034;-78
2022/09/06 09:05:36;;;;;;;5.00;3.20;;;;;;;19.45;75.10;101495.75;5000411;28;20030;-78
2022/09/06 09:08:04;;;;;;;4.57;3.57;;;;;;;19.46;75.19;101502.75;4981858;28;20628;-78
2022/09/06 09:10:35;;;;;;;4.90;3.90;;;;;;;19.48;75.83;101505.28;5018783;28;20277;-78
2022/09/06 09:13:06;;;;;;;4.35;4.05;;;;;;;19.49;75.24;101502.53;4992112;28;20055;-78
2022/09/06 09:15:34;;;;;;;4.97;4.47;;;;;;;19.50;75.47;101506.03;4998183;28;20029;-78
2022/09/06 09:18:01;;;;;;;4.50;4.15;;;;;;;19.53;75.82;101500.53;5019083;28;20238;-78
2022/09/06 09:20:26;;;;;;;4.10;3.70;;;;;;;19.56;75.91;101500.31;5035591;28;20059;-78
2022/09/06 09:22:51;;;;;;;4.18;3.42;;;;;;;19.59;75.12;101502.75;5015157;28;20030;-78
2022/09/06 09:25:21;;;;;;;6.63;3.90;;;;;;;19.62;75.29;101499.06;5014963;28;20048;-78
2022/09/06 09:27:56;;;;;;;4.22;3.83;;;;;;;19.64;75.02;101503.28;5033439;28;20195;-78
2022/09/06 09:30:22;;;;;;;6.88;5.25;;;;;;;19.68;76.67;101507.47;5014028;28;20387;-78
2022/09/06 09:32:48;;;;;;;7.13;5.03;;;;;;;19.73;76.81;101509.81;5017331;28;20037;-78
2022/09/06 09:35:14;;;;;;;6.07;4.82;;;;;;;19.76;76.19;101509.63;5018554;28;20025;-78
2022/09/06 09:37:39;;;;;;;4.83;4.40;;;;;;;19.78;75.76;101506.88;5036360;28;20288;-78
2022/09/06 09:40:11;;;;;;;11.27;5.45;;;;;;;19.81;76.42;101515.47;5006712;28;20298;-78
2022/09/06 09:42:37;;;;;;;4.78;4.38;;;;;;;19.83;76.26;101507.38;5053221;28;20066;-78
2022/09/06 09:45:25;;;;;;;5.70;4.88;;;;;;;19.86;76.61;101502.69;5026070;28;20041;-78
2022/09/06 09:47:50;;;;;;;5.07;4.68;;;;;;;19.89;76.48;101520.25;5051063;28;20029;-78
2022/09/06 09:50:31;;;;;;;5.07;4.40;;;;;;;19.93;76.60;101513.75;5014995;28;20033;-78
2022/09/06 09:53:08;;;;;;;6.25;5.50;;;;;;;19.96;77.03;101507.41;5048679;28;20088;-78
2022/09/06 09:55:33;;;;;;;4.50;4.20;;;;;;;20.00;76.87;101504.41;5051651;28;20227;-78
2022/09/06 09:57:59;;;;;;;4.65;4.22;;;;;;;20.03;75.78;101506.84;5028939;28;20029;-77
2022/09/06 10:00:41;;;;;;;5.05;4.57;;;;;;;20.08;75.85;101515.38;5015525;28;20354;-78
2022/09/06 10:03:18;;;;;;;9.00;4.97;;;;;;;20.13;76.42;101515.88;5037550;28;20033;-78
2022/09/06 10:05:59;;;;;;;8.20;4.95;;;;;;;20.18;77.49;101510.25;5020526;28;20052;-78
2022/09/06 10:08:27;;;;;;;5.78;3.63;;;;;;;20.23;76.77;101513.44;5036576;28;20216;-78
2022/09/06 10:10:52;;;;;;;4.93;4.37;;;;;;;20.26;76.29;101520.31;5022681;28;20228;-78
2022/09/06 10:13:22;;;;;;;5.25;4.70;;;;;;;20.28;75.57;101513.09;4986403;28;20034;-77
2022/09/06 10:15:50;;;;;;;7.70;5.75;;;;;;;20.33;76.09;101519.78;5018136;28;20037;-77
2022/09/06 10:18:28;;;;;;;5.05;4.55;;;;;;;20.38;76.27;101523.94;5037991;28;20268;-78
2022/09/06 10:21:04;;;;;;;6.70;4.50;;;;;;;20.42;76.84;101522.75;5018928;28;20028;-78
2022/09/06 10:24:00;;;;;;;5.97;5.38;;;;;;;20.46;76.02;101525.06;5028330;28;20067;-78
2022/09/06 10:26:38;;;;;;;7.28;4.72;;;;;;;20.52;75.13;101523.81;5014143;28;20057;-78
2022/09/06 10:29:05;;;;;;;5.72;5.05;;;;;;;20.56;75.09;101530.59;5019416;28;20037;-78
2022/09/06 10:31:38;;;;;;;5.60;5.10;;;;;;;20.60;75.64;101528.56;5025407;28;20144;-78
2022/09/06 10:34:35;;;;;;;7.45;6.28;;;;;;;20.65;76.55;101534.44;5039069;28;20100;-78
2022/09/06 10:37:38;;;;;;;5.60;5.10;;;;;;;20.67;75.76;101535.19;5015509;28;20037;-78
2022/09/06 10:40:09;;;;;;;6.15;4.90;;;;;;;20.71;75.75;101544.63;5025942;28;20096;-78
2022/09/06 10:42:40;;;;;;;6.43;4.63;;;;;;;20.72;74.85;101535.69;5037846;28;20136;-78
2022/09/06 10:45:24;;;;;;;5.82;5.00;;;;;;;20.75;75.90;101545.25;5015940;28;20647;-78
2022/09/06 10:48:01;;;;;;;7.65;5.40;;;;;;;20.79;75.70;101549.38;5046787;28;20033;-78
2022/09/06 10:50:38;;;;;;;5.63;5.07;;;;;;;20.83;75.35;101550.84;5037457;28;20028;-78
2022/09/06 10:53:33;;;;;;;7.75;6.00;;;;;;;20.89;77.65;101537.97;5031194;28;20439;-78
2022/09/06 10:56:15;;;;;;;7.63;6.93;;;;;;;20.94;78.08;101536.75;5018922;28;20147;-78
2022/09/06 10:58:58;;;;;;;8.50;7.60;;;;;;;20.99;77.90;101532.84;5037585;28;20049;-78
2022/09/06 11:01:40;;;;;;;41.78;20.52;;;;;;;21.05;76.66;101537.69;5015981;28;20043;-78
2022/09/06 11:04:10;;;;;;;9.32;7.88;;;;;;;21.08;76.75;101528.63;4999465;28;20036;-78
2022/09/06 11:06:52;;;;;;;7.43;6.72;;;;;;;21.12;75.92;101530.09;5015189;28;20099;-78
2022/09/06 11:09:38;;;;;;;7.82;6.50;;;;;;;21.14;75.26;101528.19;5035835;28;20224;-78
2022/09/06 11:12:18;;;;;;;8.25;7.38;;;;;;;21.19;76.13;101525.16;5033916;28;20096;-78
2022/09/06 11:14:45;;;;;;;10.70;6.07;;;;;;;21.22;75.53;101536.44;5010705;28;20037;-78
2022/09/06 11:17:20;;;;;;;6.80;6.25;;;;;;;21.26;75.59;101539.72;5014933;28;20239;-78
2022/09/06 11:19:55;;;;;;;6.07;5.13;;;;;;;21.28;75.61;101538.66;5008819;28;20072;-78
2022/09/06 11:22:45;;;;;;;6.30;5.70;;;;;;;21.31;75.66;101540.22;5011779;28;20026;-78
2022/09/06 11:25:26;;;;;;;4.40;4.10;;;;;;;21.36;75.44;101550.53;4999158;28;20058;-77
2022/09/06 11:27:55;;;;;;;4.57;4.15;;;;;;;21.40;75.62;101552.84;4983901;28;20104;-78
2022/09/06 11:30:24;;;;;;;5.53;4.68;;;;;;;21.43;75.81;101555.28;4999081;28;20100;-78
2022/09/06 11:32:50;;;;;;;;;;;;;;;21.45;75.60;101550.72;5002235;28;20114;-78
2022/09/06 11:35:33;;;;;;;12.13;4.38;;;;;;;21.50;75.82;101554.84;4981977;28;20180;-78
2022/09/06 11:38:02;;;;;;;5.63;4.85;;;;;;;21.53;75.36;101560.78;5007798;28;20045;-78
2022/09/06 11:40:36;;;;;;;6.60;5.35;;;;;;;21.56;75.55;101557.91;4997581;28;20042;-78
2022/09/06 11:43:02;;;;;;;7.10;6.40;;;;;;;21.60;76.00;101559.38;4981560;28;20214;-78